sensor_id;sensor_type;location;lat;lon;timestamp;P1;durP1;ratioP1;P2;durP2;ratioP2
18210;SDS011;9231;48.852;9.882;2023-03-01T00:00:01;13.37;;;9.77;;
18210;SDS011;9231;48.852;9.882;2023-03-01T00:02:29;15.03;;;9.33;;
18210;SDS011;9231;48.852;9.882;2023-03-01T00:04:55;14.27;;;10.50;;
18210;SDS011;9231;48.852;9.882;2023-03-01T00:07:22;13.77;;;9.53;;
18210;SDS011;9231;48.852;9.882;2023-03-01T00:09:48;13.27;;;10.07;;
18210;SDS011;9231;48.852;9.882;2023-03-01T00:12:15;15.50;;;10.37;;
18210;SDS011;9231;48.852;9.882;2023-03-01T00:14:41;13.80;;;10.17;;
18210;SDS011;9231;48.852;9.882;2023-03-01T00:17:07;15.63;;;10.10;;
18210;SDS011;9231;48.852;9.882;2023-03-01T00:19:35;16.10;;;11.00;;
18210;SDS011;9231;48.852;9.882;2023-03-01T00:22:02;18.13;;;11.37;;
18210;SDS011;9231;48.852;9.882;2023-03-01T00:24:28;15.50;;;11.07;;
18210;SDS011;9231;48.852;9.882;2023-03-01T00:26:55;17.10;;;11.20;;
18210;SDS011;9231;48.852;9.882;2023-03-01T00:29:22;17.73;;;11.43;;
18210;SDS011;9231;48.852;9.882;2023-03-01T00:31:48;14.33;;;10.57;;
18210;SDS011;9231;48.852;9.882;2023-03-01T00:34:14;17.57;;;11.63;;
18210;SDS011;9231;48.852;9.882;2023-03-01T00:36:42;16.83;;;10.30;;
18210;SDS011;9231;48.852;9.882;2023-03-01T00:39:10;16.93;;;10.43;;
18210;SDS011;9231;48.852;9.882;2023-03-01T00:41:37;15.27;;;10.07;;
18210;SDS011;9231;48.852;9.882;2023-03-01T00:44:05;15.33;;;10.77;;
18210;SDS011;9231;48.852;9.882;2023-03-01T00:46:31;16.00;;;10.57;;
18210;SDS011;9231;48.852;9.882;2023-03-01T00:48:58;16.20;;;10.50;;
18210;SDS011;9231;48.852;9.882;2023-03-01T00:51:29;19.80;;;12.53;;
18210;SDS011;9231;48.852;9.882;2023-03-01T00:53:58;16.93;;;11.70;;
18210;SDS011;9231;48.852;9.882;2023-03-01T00:56:25;16.80;;;11.63;;
18210;SDS011;9231;48.852;9.882;2023-03-01T00:58:52;18.70;;;11.20;;
18210;SDS011;9231;48.852;9.882;2023-03-01T01:01:19;17.50;;;11.23;;
18210;SDS011;9231;48.852;9.882;2023-03-01T01:03:46;17.73;;;11.57;;
18210;SDS011;9231;48.852;9.882;2023-03-01T01:06:14;17.93;;;12.10;;
18210;SDS011;9231;48.852;9.882;2023-03-01T01:08:40;17.13;;;11.70;;
18210;SDS011;9231;48.852;9.882;2023-03-01T01:11:09;17.40;;;12.37;;
18210;SDS011;9231;48.852;9.882;2023-03-01T01:13:36;17.17;;;12.30;;
18210;SDS011;9231;48.852;9.882;2023-03-01T01:16:03;17.63;;;12.07;;
18210;SDS011;9231;48.852;9.882;2023-03-01T01:18:29;16.70;;;11.37;;
18210;SDS011;9231;48.852;9.882;2023-03-01T01:20:56;18.50;;;11.97;;
18210;SDS011;9231;48.852;9.882;2023-03-01T01:23:22;17.57;;;12.27;;
18210;SDS011;9231;48.852;9.882;2023-03-01T01:25:48;16.80;;;11.57;;
18210;SDS011;9231;48.852;9.882;2023-03-01T01:28:16;16.97;;;11.63;;
18210;SDS011;9231;48.852;9.882;2023-03-01T01:30:43;15.93;;;11.93;;
18210;SDS011;9231;48.852;9.882;2023-03-01T01:33:09;17.33;;;12.23;;
18210;SDS011;9231;48.852;9.882;2023-03-01T01:35:36;20.97;;;13.00;;
18210;SDS011;9231;48.852;9.882;2023-03-01T01:38:02;19.77;;;12.47;;
18210;SDS011;9231;48.852;9.882;2023-03-01T01:40:28;17.70;;;12.07;;
18210;SDS011;9231;48.852;9.882;2023-03-01T01:42:55;16.37;;;12.00;;
18210;SDS011;9231;48.852;9.882;2023-03-01T01:45:28;17.80;;;11.47;;
18210;SDS011;9231;48.852;9.882;2023-03-01T01:47:55;20.77;;;11.87;;
18210;SDS011;9231;48.852;9.882;2023-03-01T01:50:22;17.33;;;11.00;;
18210;SDS011;9231;48.852;9.882;2023-03-01T01:52:48;18.20;;;12.00;;
18210;SDS011;9231;48.852;9.882;2023-03-01T01:55:17;18.87;;;12.07;;
18210;SDS011;9231;48.852;9.882;2023-03-01T01:57:47;16.57;;;11.70;;
18210;SDS011;9231;48.852;9.882;2023-03-01T02:00:15;17.80;;;11.73;;
18210;SDS011;9231;48.852;9.882;2023-03-01T02:02:44;17.87;;;11.70;;
18210;SDS011;9231;48.852;9.882;2023-03-01T02:05:13;17.53;;;11.17;;
18210;SDS011;9231;48.852;9.882;2023-03-01T02:07:41;16.80;;;12.13;;
18210;SDS011;9231;48.852;9.882;2023-03-01T02:10:09;18.70;;;12.40;;
18210;SDS011;9231;48.852;9.882;2023-03-01T02:12:36;18.40;;;11.97;;
18210;SDS011;9231;48.852;9.882;2023-03-01T02:15:04;16.77;;;11.83;;
18210;SDS011;9231;48.852;9.882;2023-03-01T02:17:30;16.60;;;11.60;;
18210;SDS011;9231;48.852;9.882;2023-03-01T02:20:02;19.60;;;12.93;;
18210;SDS011;9231;48.852;9.882;2023-03-01T02:22:32;17.53;;;11.10;;
18210;SDS011;9231;48.852;9.882;2023-03-01T02:25:03;17.53;;;12.80;;
18210;SDS011;9231;48.852;9.882;2023-03-01T02:27:33;15.63;;;11.47;;
18210;SDS011;9231;48.852;9.882;2023-03-01T02:30:04;19.27;;;12.23;;
18210;SDS011;9231;48.852;9.882;2023-03-01T02:32:31;16.37;;;12.00;;
18210;SDS011;9231;48.852;9.882;2023-03-01T02:34:57;16.10;;;11.63;;
18210;SDS011;9231;48.852;9.882;2023-03-01T02:37:24;16.80;;;11.57;;
18210;SDS011;9231;48.852;9.882;2023-03-01T02:39:53;17.60;;;12.10;;
18210;SDS011;9231;48.852;9.882;2023-03-01T02:42:23;16.83;;;11.73;;
18210;SDS011;9231;48.852;9.882;2023-03-01T02:44:52;18.00;;;11.70;;
18210;SDS011;9231;48.852;9.882;2023-03-01T02:47:20;20.60;;;12.77;;
18210;SDS011;9231;48.852;9.882;2023-03-01T02:49:46;19.20;;;13.27;;
18210;SDS011;9231;48.852;9.882;2023-03-01T02:52:24;21.70;;;13.83;;
18210;SDS011;9231;48.852;9.882;2023-03-01T02:54:55;18.93;;;12.47;;
18210;SDS011;9231;48.852;9.882;2023-03-01T02:57:23;19.53;;;12.13;;
18210;SDS011;9231;48.852;9.882;2023-03-01T02:59:52;18.33;;;13.70;;
18210;SDS011;9231;48.852;9.882;2023-03-01T03:02:22;18.57;;;12.67;;
18210;SDS011;9231;48.852;9.882;2023-03-01T03:05:01;17.93;;;12.67;;
18210;SDS011;9231;48.852;9.882;2023-03-01T03:07:27;19.47;;;12.20;;
18210;SDS011;9231;48.852;9.882;2023-03-01T03:09:54;18.77;;;12.57;;
18210;SDS011;9231;48.852;9.882;2023-03-01T03:12:20;19.47;;;13.27;;
18210;SDS011;9231;48.852;9.882;2023-03-01T03:14:47;18.90;;;13.13;;
18210;SDS011;9231;48.852;9.882;2023-03-01T03:17:14;18.10;;;11.93;;
18210;SDS011;9231;48.852;9.882;2023-03-01T03:19:41;19.27;;;12.97;;
18210;SDS011;9231;48.852;9.882;2023-03-01T03:22:10;19.33;;;12.77;;
18210;SDS011;9231;48.852;9.882;2023-03-01T03:24:36;17.93;;;12.17;;
18210;SDS011;9231;48.852;9.882;2023-03-01T03:27:03;19.53;;;12.73;;
18210;SDS011;9231;48.852;9.882;2023-03-01T03:29:30;17.43;;;13.43;;
18210;SDS011;9231;48.852;9.882;2023-03-01T03:31:56;18.23;;;11.93;;
18210;SDS011;9231;48.852;9.882;2023-03-01T03:34:22;19.90;;;12.60;;
18210;SDS011;9231;48.852;9.882;2023-03-01T03:36:53;18.73;;;12.33;;
18210;SDS011;9231;48.852;9.882;2023-03-01T03:39:24;20.03;;;13.23;;
18210;SDS011;9231;48.852;9.882;2023-03-01T03:41:50;18.10;;;12.83;;
18210;SDS011;9231;48.852;9.882;2023-03-01T03:44:17;18.43;;;13.43;;
18210;SDS011;9231;48.852;9.882;2023-03-01T03:46:43;17.70;;;13.57;;
18210;SDS011;9231;48.852;9.882;2023-03-01T03:49:10;20.73;;;12.93;;
18210;SDS011;9231;48.852;9.882;2023-03-01T03:51:36;19.87;;;13.47;;
18210;SDS011;9231;48.852;9.882;2023-03-01T03:54:04;16.97;;;12.50;;
18210;SDS011;9231;48.852;9.882;2023-03-01T03:56:30;17.97;;;12.27;;
18210;SDS011;9231;48.852;9.882;2023-03-01T03:58:57;18.73;;;13.60;;
18210;SDS011;9231;48.852;9.882;2023-03-01T04:01:23;18.67;;;12.30;;
18210;SDS011;9231;48.852;9.882;2023-03-01T04:03:49;16.77;;;11.83;;
18210;SDS011;9231;48.852;9.882;2023-03-01T04:06:19;16.77;;;12.23;;
18210;SDS011;9231;48.852;9.882;2023-03-01T04:08:46;21.20;;;13.27;;
18210;SDS011;9231;48.852;9.882;2023-03-01T04:11:17;18.13;;;12.60;;
18210;SDS011;9231;48.852;9.882;2023-03-01T04:13:55;15.10;;;11.43;;
18210;SDS011;9231;48.852;9.882;2023-03-01T04:16:22;22.40;;;13.57;;
18210;SDS011;9231;48.852;9.882;2023-03-01T04:18:48;18.37;;;12.53;;
18210;SDS011;9231;48.852;9.882;2023-03-01T04:21:15;21.10;;;13.60;;
18210;SDS011;9231;48.852;9.882;2023-03-01T04:23:42;18.13;;;12.80;;
18210;SDS011;9231;48.852;9.882;2023-03-01T04:26:08;16.53;;;12.40;;
18210;SDS011;9231;48.852;9.882;2023-03-01T04:28:37;18.83;;;12.93;;
18210;SDS011;9231;48.852;9.882;2023-03-01T04:31:06;18.63;;;13.43;;
18210;SDS011;9231;48.852;9.882;2023-03-01T04:33:38;18.03;;;12.97;;
18210;SDS011;9231;48.852;9.882;2023-03-01T04:36:04;19.87;;;13.17;;
18210;SDS011;9231;48.852;9.882;2023-03-01T04:38:33;21.37;;;13.73;;
18210;SDS011;9231;48.852;9.882;2023-03-01T04:41:00;21.10;;;13.27;;
18210;SDS011;9231;48.852;9.882;2023-03-01T04:43:28;17.57;;;13.10;;
18210;SDS011;9231;48.852;9.882;2023-03-01T04:45:56;18.53;;;12.83;;
18210;SDS011;9231;48.852;9.882;2023-03-01T04:48:27;20.30;;;13.27;;
18210;SDS011;9231;48.852;9.882;2023-03-01T04:50:54;17.47;;;12.60;;
18210;SDS011;9231;48.852;9.882;2023-03-01T04:53:20;20.83;;;12.67;;
18210;SDS011;9231;48.852;9.882;2023-03-01T04:55:47;16.33;;;12.07;;
18210;SDS011;9231;48.852;9.882;2023-03-01T04:58:13;18.57;;;12.77;;
18210;SDS011;9231;48.852;9.882;2023-03-01T05:00:39;17.53;;;12.63;;
18210;SDS011;9231;48.852;9.882;2023-03-01T05:03:08;18.40;;;12.67;;
18210;SDS011;9231;48.852;9.882;2023-03-01T05:05:35;20.73;;;14.20;;
18210;SDS011;9231;48.852;9.882;2023-03-01T05:08:02;20.03;;;14.37;;
18210;SDS011;9231;48.852;9.882;2023-03-01T05:10:30;16.40;;;12.30;;
18210;SDS011;9231;48.852;9.882;2023-03-01T05:12:57;20.30;;;13.47;;
18210;SDS011;9231;48.852;9.882;2023-03-01T05:15:24;25.10;;;13.73;;
18210;SDS011;9231;48.852;9.882;2023-03-01T05:17:51;21.23;;;13.77;;
18210;SDS011;9231;48.852;9.882;2023-03-01T05:20:20;20.50;;;13.37;;
18210;SDS011;9231;48.852;9.882;2023-03-01T05:22:48;20.73;;;14.30;;
18210;SDS011;9231;48.852;9.882;2023-03-01T05:25:15;22.97;;;13.70;;
18210;SDS011;9231;48.852;9.882;2023-03-01T05:27:41;19.93;;;13.47;;
18210;SDS011;9231;48.852;9.882;2023-03-01T05:30:08;20.17;;;13.40;;
18210;SDS011;9231;48.852;9.882;2023-03-01T05:32:42;23.63;;;14.37;;
18210;SDS011;9231;48.852;9.882;2023-03-01T05:35:10;19.77;;;12.63;;
18210;SDS011;9231;48.852;9.882;2023-03-01T05:37:39;20.20;;;14.30;;
18210;SDS011;9231;48.852;9.882;2023-03-01T05:40:07;20.83;;;14.17;;
18210;SDS011;9231;48.852;9.882;2023-03-01T05:42:40;17.07;;;12.13;;
18210;SDS011;9231;48.852;9.882;2023-03-01T05:45:07;20.93;;;13.10;;
18210;SDS011;9231;48.852;9.882;2023-03-01T05:47:34;22.13;;;13.93;;
18210;SDS011;9231;48.852;9.882;2023-03-01T05:50:01;22.65;;;18.05;;
18210;SDS011;9231;48.852;9.882;2023-03-01T05:52:27;20.73;;;14.40;;
18210;SDS011;9231;48.852;9.882;2023-03-01T05:54:55;19.33;;;14.37;;
18210;SDS011;9231;48.852;9.882;2023-03-01T05:57:21;23.33;;;13.73;;
18210;SDS011;9231;48.852;9.882;2023-03-01T05:59:48;20.93;;;13.43;;
18210;SDS011;9231;48.852;9.882;2023-03-01T06:02:14;19.10;;;13.40;;
18210;SDS011;9231;48.852;9.882;2023-03-01T06:04:40;19.83;;;13.87;;
18210;SDS011;9231;48.852;9.882;2023-03-01T06:07:07;22.10;;;12.57;;
18210;SDS011;9231;48.852;9.882;2023-03-01T06:09:33;21.00;;;13.20;;
18210;SDS011;9231;48.852;9.882;2023-03-01T06:12:01;20.10;;;13.43;;
18210;SDS011;9231;48.852;9.882;2023-03-01T06:14:28;19.80;;;13.73;;
18210;SDS011;9231;48.852;9.882;2023-03-01T06:16:54;19.67;;;13.17;;
18210;SDS011;9231;48.852;9.882;2023-03-01T06:19:20;17.80;;;13.00;;
18210;SDS011;9231;48.852;9.882;2023-03-01T06:21:47;20.60;;;13.33;;
18210;SDS011;9231;48.852;9.882;2023-03-01T06:24:13;20.40;;;13.77;;
18210;SDS011;9231;48.852;9.882;2023-03-01T06:26:40;20.13;;;14.40;;
18210;SDS011;9231;48.852;9.882;2023-03-01T06:29:08;22.07;;;14.37;;
18210;SDS011;9231;48.852;9.882;2023-03-01T06:31:34;21.63;;;13.07;;
18210;SDS011;9231;48.852;9.882;2023-03-01T06:34:01;22.90;;;14.63;;
18210;SDS011;9231;48.852;9.882;2023-03-01T06:36:27;21.30;;;14.73;;
18210;SDS011;9231;48.852;9.882;2023-03-01T06:38:53;21.97;;;13.80;;
18210;SDS011;9231;48.852;9.882;2023-03-01T06:41:20;19.47;;;13.40;;
18210;SDS011;9231;48.852;9.882;2023-03-01T06:43:46;22.17;;;13.73;;
18210;SDS011;9231;48.852;9.882;2023-03-01T06:46:14;20.87;;;14.80;;
18210;SDS011;9231;48.852;9.882;2023-03-01T06:48:41;21.77;;;14.40;;
18210;SDS011;9231;48.852;9.882;2023-03-01T06:51:07;21.93;;;13.90;;
18210;SDS011;9231;48.852;9.882;2023-03-01T06:53:34;18.83;;;13.17;;
18210;SDS011;9231;48.852;9.882;2023-03-01T06:56:00;19.93;;;13.03;;
18210;SDS011;9231;48.852;9.882;2023-03-01T06:58:26;21.77;;;13.50;;
18210;SDS011;9231;48.852;9.882;2023-03-01T07:00:53;18.60;;;13.40;;
18210;SDS011;9231;48.852;9.882;2023-03-01T07:03:21;21.80;;;13.50;;
18210;SDS011;9231;48.852;9.882;2023-03-01T07:05:48;18.77;;;13.03;;
18210;SDS011;9231;48.852;9.882;2023-03-01T07:08:14;19.67;;;12.67;;
18210;SDS011;9231;48.852;9.882;2023-03-01T07:10:41;20.83;;;13.50;;
18210;SDS011;9231;48.852;9.882;2023-03-01T07:13:07;21.47;;;13.93;;
18210;SDS011;9231;48.852;9.882;2023-03-01T07:15:34;20.07;;;14.17;;
18210;SDS011;9231;48.852;9.882;2023-03-01T07:18:00;21.33;;;14.23;;
18210;SDS011;9231;48.852;9.882;2023-03-01T07:20:28;20.00;;;13.63;;
18210;SDS011;9231;48.852;9.882;2023-03-01T07:22:55;20.47;;;14.00;;
18210;SDS011;9231;48.852;9.882;2023-03-01T07:25:23;26.93;;;14.60;;
18210;SDS011;9231;48.852;9.882;2023-03-01T07:27:50;17.90;;;12.67;;
18210;SDS011;9231;48.852;9.882;2023-03-01T07:30:17;22.33;;;13.63;;
18210;SDS011;9231;48.852;9.882;2023-03-01T07:32:43;20.10;;;13.87;;
18210;SDS011;9231;48.852;9.882;2023-03-01T07:35:10;19.20;;;13.20;;
18210;SDS011;9231;48.852;9.882;2023-03-01T07:37:38;19.40;;;13.47;;
18210;SDS011;9231;48.852;9.882;2023-03-01T07:40:05;20.87;;;13.77;;
18210;SDS011;9231;48.852;9.882;2023-03-01T07:42:32;21.00;;;13.10;;
18210;SDS011;9231;48.852;9.882;2023-03-01T07:44:58;22.17;;;13.30;;
18210;SDS011;9231;48.852;9.882;2023-03-01T07:47:25;25.47;;;13.27;;
18210;SDS011;9231;48.852;9.882;2023-03-01T07:49:51;21.07;;;14.27;;
18210;SDS011;9231;48.852;9.882;2023-03-01T07:54:53;21.03;;;13.33;;
18210;SDS011;9231;48.852;9.882;2023-03-01T07:57:20;20.17;;;13.83;;
18210;SDS011;9231;48.852;9.882;2023-03-01T07:59:46;20.83;;;14.20;;
18210;SDS011;9231;48.852;9.882;2023-03-01T08:02:12;21.30;;;13.83;;
18210;SDS011;9231;48.852;9.882;2023-03-01T08:04:40;19.90;;;14.00;;
18210;SDS011;9231;48.852;9.882;2023-03-01T08:07:06;20.23;;;12.60;;
18210;SDS011;9231;48.852;9.882;2023-03-01T08:09:34;21.57;;;14.40;;
18210;SDS011;9231;48.852;9.882;2023-03-01T08:12:02;21.87;;;12.80;;
18210;SDS011;9231;48.852;9.882;2023-03-01T08:14:29;21.57;;;13.63;;
18210;SDS011;9231;48.852;9.882;2023-03-01T08:16:55;20.37;;;13.57;;
18210;SDS011;9231;48.852;9.882;2023-03-01T08:19:22;21.20;;;14.13;;
18210;SDS011;9231;48.852;9.882;2023-03-01T08:21:48;23.03;;;14.63;;
18210;SDS011;9231;48.852;9.882;2023-03-01T08:24:15;19.80;;;14.23;;
18210;SDS011;9231;48.852;9.882;2023-03-01T08:26:41;20.87;;;14.20;;
18210;SDS011;9231;48.852;9.882;2023-03-01T08:29:09;22.47;;;13.60;;
18210;SDS011;9231;48.852;9.882;2023-03-01T08:31:36;19.10;;;14.30;;
18210;SDS011;9231;48.852;9.882;2023-03-01T08:34:04;22.60;;;14.50;;
18210;SDS011;9231;48.852;9.882;2023-03-01T08:36:32;21.20;;;13.37;;
18210;SDS011;9231;48.852;9.882;2023-03-01T08:38:58;23.43;;;13.40;;
18210;SDS011;9231;48.852;9.882;2023-03-01T08:41:25;20.23;;;13.30;;
18210;SDS011;9231;48.852;9.882;2023-03-01T08:43:51;23.23;;;14.83;;
18210;SDS011;9231;48.852;9.882;2023-03-01T08:46:24;24.70;;;14.33;;
18210;SDS011;9231;48.852;9.882;2023-03-01T08:48:51;20.33;;;14.10;;
18210;SDS011;9231;48.852;9.882;2023-03-01T08:51:18;20.00;;;13.93;;
18210;SDS011;9231;48.852;9.882;2023-03-01T08:53:45;19.53;;;14.83;;
18210;SDS011;9231;48.852;9.882;2023-03-01T08:56:12;21.60;;;14.10;;
18210;SDS011;9231;48.852;9.882;2023-03-01T08:58:39;17.90;;;13.97;;
18210;SDS011;9231;48.852;9.882;2023-03-01T09:01:07;19.63;;;13.60;;
18210;SDS011;9231;48.852;9.882;2023-03-01T09:03:35;20.63;;;14.27;;
18210;SDS011;9231;48.852;9.882;2023-03-01T09:06:01;18.80;;;13.97;;
18210;SDS011;9231;48.852;9.882;2023-03-01T09:08:28;20.83;;;14.30;;
18210;SDS011;9231;48.852;9.882;2023-03-01T09:10:55;20.03;;;14.40;;
18210;SDS011;9231;48.852;9.882;2023-03-01T09:13:21;21.57;;;14.17;;
18210;SDS011;9231;48.852;9.882;2023-03-01T09:15:49;21.13;;;13.77;;
18210;SDS011;9231;48.852;9.882;2023-03-01T09:18:16;17.33;;;13.57;;
18210;SDS011;9231;48.852;9.882;2023-03-01T09:20:44;17.40;;;12.87;;
18210;SDS011;9231;48.852;9.882;2023-03-01T09:23:11;23.17;;;14.13;;
18210;SDS011;9231;48.852;9.882;2023-03-01T09:25:37;19.13;;;14.07;;
18210;SDS011;9231;48.852;9.882;2023-03-01T09:28:04;16.93;;;12.47;;
18210;SDS011;9231;48.852;9.882;2023-03-01T09:30:30;18.13;;;13.67;;
18210;SDS011;9231;48.852;9.882;2023-03-01T09:32:56;16.87;;;13.23;;
18210;SDS011;9231;48.852;9.882;2023-03-01T09:35:23;16.67;;;13.13;;
18210;SDS011;9231;48.852;9.882;2023-03-01T09:37:51;19.27;;;13.13;;
18210;SDS011;9231;48.852;9.882;2023-03-01T09:40:18;20.33;;;13.17;;
18210;SDS011;9231;48.852;9.882;2023-03-01T09:42:46;18.07;;;12.70;;
18210;SDS011;9231;48.852;9.882;2023-03-01T09:45:18;17.03;;;12.77;;
18210;SDS011;9231;48.852;9.882;2023-03-01T09:47:46;18.90;;;13.67;;
18210;SDS011;9231;48.852;9.882;2023-03-01T09:50:14;18.13;;;13.77;;
18210;SDS011;9231;48.852;9.882;2023-03-01T09:52:42;16.73;;;12.33;;
18210;SDS011;9231;48.852;9.882;2023-03-01T09:55:12;18.80;;;13.20;;
18210;SDS011;9231;48.852;9.882;2023-03-01T09:57:41;15.57;;;12.17;;
18210;SDS011;9231;48.852;9.882;2023-03-01T10:00:16;18.40;;;12.40;;
18210;SDS011;9231;48.852;9.882;2023-03-01T10:02:45;18.67;;;13.27;;
18210;SDS011;9231;48.852;9.882;2023-03-01T10:05:15;15.30;;;11.70;;
18210;SDS011;9231;48.852;9.882;2023-03-01T10:07:46;15.10;;;11.70;;
18210;SDS011;9231;48.852;9.882;2023-03-01T10:10:21;14.50;;;11.60;;
18210;SDS011;9231;48.852;9.882;2023-03-01T10:12:50;18.03;;;12.77;;
18210;SDS011;9231;48.852;9.882;2023-03-01T10:15:18;14.23;;;10.60;;
18210;SDS011;9231;48.852;9.882;2023-03-01T10:17:46;18.20;;;12.13;;
18210;SDS011;9231;48.852;9.882;2023-03-01T10:20:15;16.03;;;11.77;;
18210;SDS011;9231;48.852;9.882;2023-03-01T10:22:42;17.63;;;12.63;;
18210;SDS011;9231;48.852;9.882;2023-03-01T10:25:12;19.93;;;11.40;;
18210;SDS011;9231;48.852;9.882;2023-03-01T10:27:43;14.70;;;11.03;;
18210;SDS011;9231;48.852;9.882;2023-03-01T10:30:13;18.27;;;12.27;;
18210;SDS011;9231;48.852;9.882;2023-03-01T10:32:44;20.23;;;12.87;;
18210;SDS011;9231;48.852;9.882;2023-03-01T10:35:18;16.33;;;12.20;;
18210;SDS011;9231;48.852;9.882;2023-03-01T10:37:57;17.57;;;12.73;;
18210;SDS011;9231;48.852;9.882;2023-03-01T10:40:24;17.53;;;13.33;;
18210;SDS011;9231;48.852;9.882;2023-03-01T10:42:52;16.07;;;12.03;;
18210;SDS011;9231;48.852;9.882;2023-03-01T10:45:31;17.53;;;12.87;;
18210;SDS011;9231;48.852;9.882;2023-03-01T10:48:03;17.67;;;12.27;;
18210;SDS011;9231;48.852;9.882;2023-03-01T10:50:29;17.47;;;13.23;;
18210;SDS011;9231;48.852;9.882;2023-03-01T10:53:00;17.57;;;13.13;;
18210;SDS011;9231;48.852;9.882;2023-03-01T10:55:28;18.33;;;12.67;;
18210;SDS011;9231;48.852;9.882;2023-03-01T10:58:09;16.30;;;13.00;;
18210;SDS011;9231;48.852;9.882;2023-03-01T11:00:46;16.57;;;12.43;;
18210;SDS011;9231;48.852;9.882;2023-03-01T11:03:14;16.77;;;12.37;;
18210;SDS011;9231;48.852;9.882;2023-03-01T11:05:50;18.37;;;13.37;;
18210;SDS011;9231;48.852;9.882;2023-03-01T11:08:26;17.50;;;12.60;;
18210;SDS011;9231;48.852;9.882;2023-03-01T11:11:01;17.03;;;12.53;;
18210;SDS011;9231;48.852;9.882;2023-03-01T11:13:30;17.50;;;13.20;;
18210;SDS011;9231;48.852;9.882;2023-03-01T11:15:58;17.60;;;12.17;;
18210;SDS011;9231;48.852;9.882;2023-03-01T11:18:25;17.93;;;12.63;;
18210;SDS011;9231;48.852;9.882;2023-03-01T11:20:52;14.57;;;11.80;;
18210;SDS011;9231;48.852;9.882;2023-03-01T11:23:19;15.60;;;12.93;;
18210;SDS011;9231;48.852;9.882;2023-03-01T11:25:47;16.40;;;13.07;;
18210;SDS011;9231;48.852;9.882;2023-03-01T11:28:16;16.10;;;11.73;;
18210;SDS011;9231;48.852;9.882;2023-03-01T11:30:46;15.90;;;12.30;;
18210;SDS011;9231;48.852;9.882;2023-03-01T11:33:16;15.23;;;11.60;;
18210;SDS011;9231;48.852;9.882;2023-03-01T11:35:46;15.10;;;11.77;;
18210;SDS011;9231;48.852;9.882;2023-03-01T11:38:16;15.07;;;11.33;;
18210;SDS011;9231;48.852;9.882;2023-03-01T11:40:44;16.57;;;11.90;;
18210;SDS011;9231;48.852;9.882;2023-03-01T11:43:15;14.13;;;10.87;;
18210;SDS011;9231;48.852;9.882;2023-03-01T11:46:06;14.10;;;10.97;;
18210;SDS011;9231;48.852;9.882;2023-03-01T11:48:46;13.90;;;11.17;;
18210;SDS011;9231;48.852;9.882;2023-03-01T11:51:15;14.80;;;11.87;;
18210;SDS011;9231;48.852;9.882;2023-03-01T11:53:50;17.43;;;11.50;;
18210;SDS011;9231;48.852;9.882;2023-03-01T11:56:23;15.50;;;12.03;;
18210;SDS011;9231;48.852;9.882;2023-03-01T11:58:59;16.17;;;12.23;;
18210;SDS011;9231;48.852;9.882;2023-03-01T12:01:31;13.67;;;10.90;;
18210;SDS011;9231;48.852;9.882;2023-03-01T12:04:03;13.43;;;11.23;;
18210;SDS011;9231;48.852;9.882;2023-03-01T12:06:38;15.10;;;11.00;;
18210;SDS011;9231;48.852;9.882;2023-03-01T12:09:12;15.23;;;10.77;;
18210;SDS011;9231;48.852;9.882;2023-03-01T12:11:42;14.60;;;11.57;;
18210;SDS011;9231;48.852;9.882;2023-03-01T12:17:02;13.33;;;10.37;;
18210;SDS011;9231;48.852;9.882;2023-03-01T12:19:45;13.47;;;10.90;;
18210;SDS011;9231;48.852;9.882;2023-03-01T12:22:17;14.67;;;10.97;;
18210;SDS011;9231;48.852;9.882;2023-03-01T12:25:02;13.73;;;11.00;;
18210;SDS011;9231;48.852;9.882;2023-03-01T12:27:40;15.10;;;11.53;;
18210;SDS011;9231;48.852;9.882;2023-03-01T12:30:16;13.73;;;10.83;;
18210;SDS011;9231;48.852;9.882;2023-03-01T12:32:48;14.37;;;10.97;;
18210;SDS011;9231;48.852;9.882;2023-03-01T12:35:20;14.40;;;11.17;;
18210;SDS011;9231;48.852;9.882;2023-03-01T12:37:54;12.27;;;10.93;;
18210;SDS011;9231;48.852;9.882;2023-03-01T12:40:29;15.13;;;11.50;;
18210;SDS011;9231;48.852;9.882;2023-03-01T12:43:01;15.17;;;11.17;;
18210;SDS011;9231;48.852;9.882;2023-03-01T12:48:20;15.00;;;11.77;;
18210;SDS011;9231;48.852;9.882;2023-03-01T12:50:51;15.03;;;12.63;;
18210;SDS011;9231;48.852;9.882;2023-03-01T12:53:28;17.33;;;13.00;;
18210;SDS011;9231;48.852;9.882;2023-03-01T12:55:56;15.23;;;12.40;;
18210;SDS011;9231;48.852;9.882;2023-03-01T12:58:27;18.10;;;12.67;;
18210;SDS011;9231;48.852;9.882;2023-03-01T13:01:07;16.00;;;13.10;;
18210;SDS011;9231;48.852;9.882;2023-03-01T13:03:42;17.47;;;12.93;;
18210;SDS011;9231;48.852;9.882;2023-03-01T13:06:15;14.47;;;12.03;;
18210;SDS011;9231;48.852;9.882;2023-03-01T13:08:46;15.30;;;12.63;;
18210;SDS011;9231;48.852;9.882;2023-03-01T13:11:15;17.10;;;12.77;;
18210;SDS011;9231;48.852;9.882;2023-03-01T13:13:42;14.27;;;12.53;;
18210;SDS011;9231;48.852;9.882;2023-03-01T13:16:22;15.33;;;12.03;;
18210;SDS011;9231;48.852;9.882;2023-03-01T13:19:09;15.07;;;12.77;;
18210;SDS011;9231;48.852;9.882;2023-03-01T13:21:38;16.37;;;12.53;;
18210;SDS011;9231;48.852;9.882;2023-03-01T13:24:22;16.17;;;12.17;;
18210;SDS011;9231;48.852;9.882;2023-03-01T13:29:31;14.40;;;11.40;;
18210;SDS011;9231;48.852;9.882;2023-03-01T13:32:17;15.03;;;11.87;;
18210;SDS011;9231;48.852;9.882;2023-03-01T13:34:49;13.33;;;11.57;;
18210;SDS011;9231;48.852;9.882;2023-03-01T13:37:20;17.80;;;12.30;;
18210;SDS011;9231;48.852;9.882;2023-03-01T13:39:47;15.30;;;12.33;;
18210;SDS011;9231;48.852;9.882;2023-03-01T13:44:58;15.50;;;11.83;;
18210;SDS011;9231;48.852;9.882;2023-03-01T13:47:25;14.80;;;11.63;;
18210;SDS011;9231;48.852;9.882;2023-03-01T13:49:55;15.50;;;12.33;;
18210;SDS011;9231;48.852;9.882;2023-03-01T13:54:55;14.53;;;11.70;;
18210;SDS011;9231;48.852;9.882;2023-03-01T13:57:29;14.80;;;10.90;;
18210;SDS011;9231;48.852;9.882;2023-03-01T13:59:57;14.63;;;11.53;;
18210;SDS011;9231;48.852;9.882;2023-03-01T14:02:23;12.67;;;10.53;;
18210;SDS011;9231;48.852;9.882;2023-03-01T14:04:57;13.97;;;11.47;;
18210;SDS011;9231;48.852;9.882;2023-03-01T14:07:24;12.37;;;11.03;;
18210;SDS011;9231;48.852;9.882;2023-03-01T14:09:51;12.20;;;10.83;;
18210;SDS011;9231;48.852;9.882;2023-03-01T14:12:34;14.97;;;10.97;;
18210;SDS011;9231;48.852;9.882;2023-03-01T14:15:06;15.40;;;11.10;;
18210;SDS011;9231;48.852;9.882;2023-03-01T14:17:41;12.53;;;11.23;;
18210;SDS011;9231;48.852;9.882;2023-03-01T14:20:13;14.17;;;10.67;;
18210;SDS011;9231;48.852;9.882;2023-03-01T14:22:40;13.47;;;10.73;;
18210;SDS011;9231;48.852;9.882;2023-03-01T14:25:16;13.30;;;11.07;;
18210;SDS011;9231;48.852;9.882;2023-03-01T14:27:43;13.43;;;11.03;;
18210;SDS011;9231;48.852;9.882;2023-03-01T14:30:10;13.17;;;10.67;;
18210;SDS011;9231;48.852;9.882;2023-03-01T14:32:38;12.07;;;10.43;;
18210;SDS011;9231;48.852;9.882;2023-03-01T14:35:19;12.80;;;10.67;;
18210;SDS011;9231;48.852;9.882;2023-03-01T14:37:45;12.73;;;10.67;;
18210;SDS011;9231;48.852;9.882;2023-03-01T14:40:20;14.90;;;10.70;;
18210;SDS011;9231;48.852;9.882;2023-03-01T14:42:46;13.13;;;10.57;;
18210;SDS011;9231;48.852;9.882;2023-03-01T14:45:13;14.40;;;10.77;;
18210;SDS011;9231;48.852;9.882;2023-03-01T14:47:39;12.47;;;10.40;;
18210;SDS011;9231;48.852;9.882;2023-03-01T14:50:08;12.20;;;10.53;;
18210;SDS011;9231;48.852;9.882;2023-03-01T14:52:36;12.43;;;10.20;;
18210;SDS011;9231;48.852;9.882;2023-03-01T14:55:04;13.00;;;9.73;;
18210;SDS011;9231;48.852;9.882;2023-03-01T14:57:31;14.30;;;10.70;;
18210;SDS011;9231;48.852;9.882;2023-03-01T14:59:58;13.07;;;10.77;;